Strona główna
METAR-TAF:

METAR-TAF

Lotnisko :

RAF Fairford

Fairford, Anglia

Szerokość geograficzna: 51-41N, Długość geograficzna: 001-47W, wysokość: 87 m

Aktualna obserwacja pogody

Raport powstał 43 minut temu, godzina 04:56 UTC
Wiatr 5 kt od północny wschód
Temperatura 11°C
Wilgotność 76%
Ciśnienie 1024 hPa
Widzialność 10 km lub więcej
bezchmurnie

METAR: EGVA 010456Z AUTO 04005KT 9999 CLR 11/07 A3023 RMK AO2 SLP239 T01050066 $

czas: 06:39 (05:39 UTC)


TAF: brakujący

Obserwacja i prognoza pogody dla ponad 4000 lotnisk (raport METAR i TAF).

Dostępne stacje oznaczono żółtymi i czerwonymi punktami na mapie.

Najedź kursorem aby zobaczyć nazwę stacji.

Kliknij aby zobaczyć obserwacje i prognozy pogody.

Aby zmienić mapę: kliknij na zielony przycisk z czarnym krzyżykiem, aby powiększyć; na zielony przycisk z myślnikiem, aby pomniejszyć; na zielone strzałki, aby przejść do map sąsiednich.


METAR-TAF: